createdAt,value
2019-04-11T00:00:47.980Z,49.40
2019-04-11T00:03:41.771Z,49.50
2019-04-11T00:06:33.813Z,49.80
2019-04-11T00:09:26.918Z,49.70
2019-04-11T00:12:19.009Z,49.80
2019-04-11T00:15:22.408Z,49.90
2019-04-11T00:18:16.631Z,50.00
2019-04-11T00:21:22.279Z,50.30
2019-04-11T00:24:41.026Z,50.40
2019-04-11T00:28:01.967Z,50.50
2019-04-11T00:30:54.563Z,50.70
2019-04-11T00:33:54.305Z,50.70
2019-04-11T00:36:52.683Z,50.80
2019-04-11T00:39:45.827Z,50.90
2019-04-11T00:43:07.860Z,50.90
2019-04-11T00:46:05.081Z,50.90
2019-04-11T00:49:19.701Z,50.50
2019-04-11T00:52:29.490Z,50.50
2019-04-11T00:55:23.729Z,50.30
2019-04-11T00:58:27.760Z,50.30
2019-04-11T01:01:26.072Z,50.40
2019-04-11T01:04:43.459Z,50.50
2019-04-11T01:07:36.670Z,50.60
2019-04-11T01:10:29.973Z,50.60
2019-04-11T01:19:19.652Z,49.80
2019-04-11T01:22:18.107Z,50.50
2019-04-11T01:25:13.212Z,50.50
2019-04-11T01:28:14.294Z,50.50
2019-04-11T01:31:15.540Z,50.60
2019-04-11T01:34:13.757Z,50.70
2019-04-11T01:37:21.760Z,50.50
2019-04-11T01:40:34.602Z,50.70
2019-04-11T01:43:26.821Z,50.80
2019-04-11T01:46:22.868Z,50.70
2019-04-11T01:49:44.588Z,50.50
2019-04-11T01:52:46.640Z,50.50
2019-04-11T01:55:38.789Z,50.30
2019-04-11T01:58:32.908Z,50.50
2019-04-11T02:01:32.669Z,50.70
2019-04-11T02:04:30.686Z,50.80
2019-04-11T02:07:35.151Z,50.90
2019-04-11T02:10:29.656Z,51.30
2019-04-11T02:13:25.913Z,51.70
2019-04-11T02:16:25.218Z,51.90
2019-04-11T02:19:18.302Z,52.80
2019-04-11T02:22:34.766Z,52.30
2019-04-11T02:27:28.749Z,52.00
2019-04-11T02:30:27.695Z,53.00
2019-04-11T02:33:18.151Z,53.70
2019-04-11T02:36:12.214Z,53.00
2019-04-11T02:39:11.755Z,53.10
2019-04-11T02:42:12.566Z,53.20
2019-04-11T02:45:22.693Z,53.20
2019-04-11T02:48:01.378Z,53.30
2019-04-11T02:51:14.555Z,53.40
2019-04-11T02:54:07.821Z,53.60
2019-04-11T02:57:00.657Z,53.60
2019-04-11T02:59:56.065Z,53.70
2019-04-11T03:02:48.516Z,53.60
2019-04-11T03:05:48.527Z,53.60
2019-04-11T03:08:41.046Z,53.80
2019-04-11T03:11:34.546Z,53.80
2019-04-11T03:15:04.321Z,53.80
2019-04-11T03:17:49.453Z,53.90
2019-04-11T03:20:49.702Z,54.30
2019-04-11T03:23:41.449Z,54.50
2019-04-11T03:26:37.752Z,54.50
2019-04-11T03:29:37.425Z,54.50
2019-04-11T03:38:42.386Z,54.80
2019-04-11T03:41:34.412Z,55.10
2019-04-11T03:44:19.130Z,55.10
2019-04-11T03:47:20.393Z,55.30
2019-04-11T03:50:08.582Z,55.60
2019-04-11T03:53:04.759Z,55.70
2019-04-11T03:56:05.265Z,55.70
2019-04-11T04:02:16.769Z,55.80
2019-04-11T04:05:19.372Z,55.80
2019-04-11T04:08:13.733Z,55.90
2019-04-11T04:11:25.132Z,55.90
2019-04-11T04:14:36.925Z,56.10
2019-04-11T04:17:49.689Z,56.10
2019-04-11T04:20:59.707Z,56.20
2019-04-11T04:23:59.308Z,56.40
2019-04-11T04:26:52.435Z,56.60
2019-04-11T04:29:47.387Z,56.60
2019-04-11T04:32:38.494Z,56.10
2019-04-11T04:35:33.752Z,56.40
2019-04-11T04:38:27.510Z,56.60
2019-04-11T04:45:11.820Z,55.60
2019-04-11T04:48:24.347Z,56.00
2019-04-11T04:51:26.612Z,56.30
2019-04-11T04:54:38.623Z,56.60
2019-04-11T04:57:44.949Z,56.50
2019-04-11T05:00:37.644Z,56.50
2019-04-11T05:03:32.084Z,56.70
2019-04-11T05:06:26.190Z,56.90
2019-04-11T05:09:18.756Z,56.30
2019-04-11T05:12:18.382Z,56.50
2019-04-11T05:15:12.178Z,56.60
2019-04-11T05:18:05.931Z,54.80
2019-04-11T05:20:59.472Z,56.30
2019-04-11T05:24:02.039Z,54.90
2019-04-11T05:27:08.249Z,55.60
2019-04-11T05:30:03.227Z,55.70
2019-04-11T05:32:57.766Z,56.00
2019-04-11T05:35:50.073Z,55.00
2019-04-11T05:38:46.361Z,55.40
2019-04-11T05:41:42.065Z,55.40
2019-04-11T05:44:40.371Z,55.50
2019-04-11T05:47:32.820Z,55.80
2019-04-11T05:50:37.227Z,53.90
2019-04-11T05:53:32.774Z,54.50
2019-04-11T05:56:31.763Z,54.10
2019-04-11T05:59:25.599Z,54.60
2019-04-11T06:02:39.525Z,53.60
2019-04-11T06:05:48.253Z,53.10
2019-04-11T06:08:54.210Z,52.40
2019-04-11T06:11:57.520Z,53.20
2019-04-11T06:14:58.265Z,52.70
2019-04-11T06:17:58.651Z,52.60
2019-04-11T06:21:00.512Z,51.90
2019-04-11T06:24:16.240Z,51.90
2019-04-11T06:27:30.465Z,52.50
2019-04-11T06:30:54.783Z,51.20
2019-04-11T06:33:53.666Z,51.10
2019-04-11T06:37:07.566Z,51.50
2019-04-11T06:40:04.474Z,50.90
2019-04-11T06:43:27.743Z,50.50
2019-04-11T06:46:52.366Z,50.50
2019-04-11T06:49:58.502Z,51.20
2019-04-11T06:52:53.105Z,51.10
2019-04-11T06:56:14.704Z,51.10
2019-04-11T06:59:14.317Z,50.70
2019-04-11T07:02:19.061Z,51.30
2019-04-11T07:05:10.663Z,50.50
2019-04-11T07:08:07.539Z,50.20
2019-04-11T07:11:05.821Z,50.20
2019-04-11T07:14:18.191Z,50.40
2019-04-11T07:17:33.896Z,50.50
2019-04-11T07:20:54.748Z,50.70
2019-04-11T07:24:07.506Z,51.50
2019-04-11T07:27:09.991Z,51.60
2019-04-11T07:30:37.493Z,51.60
2019-04-11T07:33:46.039Z,51.20
2019-04-11T07:36:55.727Z,50.70
2019-04-11T07:40:17.849Z,51.10
2019-04-11T07:43:19.046Z,51.30
2019-04-11T07:46:42.980Z,50.90
2019-04-11T07:49:38.512Z,51.90
2019-04-11T07:52:35.934Z,52.90
2019-04-11T07:55:28.382Z,51.70
2019-04-11T07:58:25.364Z,51.20
2019-04-11T08:01:46.944Z,52.10
2019-04-11T08:04:55.824Z,53.40
2019-04-11T08:08:10.937Z,52.90
2019-04-11T08:11:25.566Z,52.90
2019-04-11T08:14:53.033Z,53.30
2019-04-11T08:17:46.145Z,52.90
2019-04-11T08:21:03.672Z,52.40
2019-04-11T08:23:58.197Z,52.60
2019-04-11T08:30:20.600Z,52.50
2019-04-11T08:33:16.167Z,53.70
2019-04-11T08:36:36.512Z,53.60
2019-04-11T08:39:35.502Z,53.60
2019-04-11T08:42:43.917Z,53.60
2019-04-11T08:45:36.776Z,53.30
2019-04-11T08:48:28.858Z,53.60
2019-04-11T08:51:21.075Z,53.40
2019-04-11T08:54:29.564Z,53.70
2019-04-11T08:57:34.332Z,53.80
2019-04-11T09:00:42.728Z,53.60
2019-04-11T09:04:06.794Z,53.70
2019-04-11T09:07:27.653Z,53.80
2019-04-11T09:11:10.692Z,52.40
2019-04-11T09:14:48.649Z,52.90
2019-04-11T09:17:55.210Z,53.50
2019-04-11T09:21:02.236Z,54.00
2019-04-11T09:23:54.838Z,54.10
2019-04-11T09:27:06.494Z,54.30
2019-04-11T09:30:02.510Z,53.90
2019-04-11T09:33:11.112Z,53.90
2019-04-11T09:36:04.283Z,53.90
2019-04-11T09:38:57.307Z,53.90
2019-04-11T09:45:25.635Z,53.80
2019-04-11T09:48:34.638Z,53.80
2019-04-11T09:54:58.839Z,53.90
2019-04-11T09:57:58.608Z,53.50
2019-04-11T10:01:12.364Z,53.60
2019-04-11T10:04:07.154Z,52.40
2019-04-11T10:07:35.809Z,53.50
2019-04-11T10:11:01.658Z,53.50
2019-04-11T10:14:13.531Z,54.00
2019-04-11T10:17:24.299Z,52.70
2019-04-11T10:20:38.643Z,53.60
2019-04-11T10:24:09.480Z,53.90
2019-04-11T10:27:08.691Z,53.70
2019-04-11T10:30:19.750Z,53.70
2019-04-11T10:33:35.167Z,53.70
2019-04-11T10:36:31.549Z,53.40
2019-04-11T10:39:57.515Z,53.40
2019-04-11T10:42:51.909Z,52.50
2019-04-11T10:46:11.267Z,52.90
2019-04-11T10:49:28.739Z,52.80
2019-04-11T10:52:30.724Z,52.80
2019-04-11T10:55:33.613Z,52.50
2019-04-11T10:58:35.080Z,52.60
2019-04-11T11:01:50.613Z,52.60
2019-04-11T11:04:57.038Z,52.20
2019-04-11T11:07:59.941Z,52.70
2019-04-11T11:10:55.512Z,52.70
2019-04-11T11:14:04.621Z,52.70
2019-04-11T11:17:04.813Z,51.10
2019-04-11T11:20:39.375Z,51.90
2019-04-11T11:23:45.827Z,51.40
2019-04-11T11:26:41.609Z,51.70
2019-04-11T11:29:51.756Z,51.50
2019-04-11T11:32:47.854Z,51.70
2019-04-11T11:36:09.968Z,51.80
2019-04-11T11:39:17.503Z,51.90
2019-04-11T11:42:26.447Z,51.40
2019-04-11T11:45:56.382Z,51.80
2019-04-11T11:49:00.725Z,52.00
2019-04-11T11:52:11.483Z,51.90
2019-04-11T11:55:08.819Z,52.50
2019-04-11T11:58:25.994Z,52.00
2019-04-11T12:01:23.981Z,51.60
2019-04-11T12:04:35.455Z,51.70
2019-04-11T12:07:37.388Z,51.40
2019-04-11T12:10:43.711Z,51.60
2019-04-11T12:13:53.615Z,52.10
2019-04-11T12:17:05.137Z,52.30
2019-04-11T12:20:09.008Z,52.00
2019-04-11T12:22:56.964Z,52.40
2019-04-11T12:25:49.689Z,52.70
2019-04-11T12:29:18.547Z,52.50
2019-04-11T12:32:14.516Z,52.80
2019-04-11T12:35:25.778Z,52.90
2019-04-11T12:38:34.956Z,53.10
2019-04-11T12:41:35.837Z,51.90
2019-04-11T12:44:51.407Z,51.90
2019-04-11T12:47:55.549Z,51.50
2019-04-11T12:51:16.076Z,51.60
2019-04-11T12:54:28.523Z,52.00
2019-04-11T12:57:48.984Z,52.50
2019-04-11T13:00:55.368Z,52.80
2019-04-11T13:04:03.370Z,52.90
2019-04-11T13:07:14.203Z,53.10
2019-04-11T13:10:13.642Z,53.50
2019-04-11T13:13:17.279Z,53.30
2019-04-11T13:16:14.582Z,53.10
2019-04-11T13:22:36.041Z,52.70
2019-04-11T13:26:04.896Z,52.30
2019-04-11T13:29:12.828Z,52.00
2019-04-11T13:32:23.492Z,52.00
2019-04-11T13:35:37.272Z,51.80
2019-04-11T13:38:34.305Z,50.70
2019-04-11T13:41:53.389Z,50.60
2019-04-11T13:44:47.797Z,50.60
2019-04-11T13:48:05.462Z,49.90
2019-04-11T13:51:04.639Z,49.60
2019-04-11T13:54:29.136Z,49.50
2019-04-11T13:57:41.987Z,50.00
2019-04-11T14:00:47.407Z,50.10
2019-04-11T14:04:01.494Z,50.00
2019-04-11T14:06:54.350Z,49.70
2019-04-11T14:09:49.818Z,49.90
2019-04-11T14:12:41.745Z,49.70
2019-04-11T14:15:36.452Z,49.80
2019-04-11T14:18:42.130Z,50.00
2019-04-11T14:21:37.960Z,49.80
2019-04-11T14:24:55.833Z,49.70
2019-04-11T14:27:57.778Z,50.30
2019-04-11T14:30:56.949Z,49.50
2019-04-11T14:33:55.536Z,49.50
2019-04-11T14:37:13.552Z,50.00
2019-04-11T14:40:27.399Z,50.00
2019-04-11T14:43:45.848Z,50.00
2019-04-11T14:47:02.043Z,50.00
2019-04-11T14:50:00.423Z,49.70
2019-04-11T14:53:09.893Z,49.50
2019-04-11T14:56:07.008Z,49.40
2019-04-11T14:59:32.442Z,50.00
2019-04-11T15:02:41.473Z,50.30
2019-04-11T15:05:53.882Z,50.30
2019-04-11T15:08:59.171Z,50.10
2019-04-11T15:12:12.957Z,50.40
2019-04-11T15:15:26.094Z,50.60
2019-04-11T15:18:20.718Z,50.60
2019-04-11T15:21:43.141Z,50.90
2019-04-11T15:24:37.634Z,50.60
2019-04-11T15:27:47.219Z,50.80
2019-04-11T15:30:43.618Z,51.10
2019-04-11T15:33:52.542Z,51.00
2019-04-11T15:37:04.621Z,50.20
2019-04-11T15:40:23.412Z,50.10
2019-04-11T15:43:42.319Z,50.80
2019-04-11T15:46:35.029Z,50.70
2019-04-11T15:49:43.629Z,51.30
2019-04-11T15:52:37.020Z,51.80
2019-04-11T15:55:59.767Z,51.40
2019-04-11T15:58:56.911Z,51.50
2019-04-11T16:02:16.155Z,51.00
2019-04-11T16:05:32.284Z,50.90
2019-04-11T16:08:46.429Z,51.00
2019-04-11T16:11:58.440Z,51.50
2019-04-11T16:14:51.187Z,51.50
2019-04-11T16:18:04.004Z,51.30
2019-04-11T16:21:00.262Z,51.20
2019-04-11T16:24:03.648Z,51.60
2019-04-11T16:27:09.747Z,52.10
2019-04-11T16:30:07.872Z,51.80
2019-04-11T16:33:29.831Z,52.20
2019-04-11T16:36:43.249Z,52.30
2019-04-11T16:39:45.125Z,52.40
2019-04-11T16:42:43.490Z,52.30
2019-04-11T16:45:55.731Z,52.00
2019-04-11T16:48:55.673Z,51.80
2019-04-11T18:01:17.743Z,53.60
2019-04-11T18:04:13.293Z,52.60
2019-04-11T18:07:02.612Z,53.40
2019-04-11T18:09:56.154Z,53.50
2019-04-11T18:12:48.404Z,53.40
2019-04-11T18:15:40.330Z,53.80
2019-04-11T18:18:34.838Z,53.20
2019-04-11T18:21:26.158Z,53.00
2019-04-11T18:24:20.002Z,53.00
2019-04-11T18:27:13.090Z,52.70
2019-04-11T18:30:06.304Z,52.40
2019-04-11T18:33:00.294Z,52.10
2019-04-11T18:35:52.923Z,51.80
2019-04-11T18:38:49.238Z,51.40
2019-04-11T18:41:44.541Z,51.40
2019-04-11T18:44:42.492Z,50.20
2019-04-11T18:47:34.711Z,48.50
2019-04-11T18:50:28.790Z,49.10
2019-04-11T18:53:27.166Z,47.00
2019-04-11T18:56:18.836Z,46.10
2019-04-11T19:02:24.553Z,47.60
2019-04-11T19:05:23.342Z,47.20
2019-04-11T19:08:12.947Z,47.20
2019-04-11T19:11:03.741Z,48.00
2019-04-11T19:13:55.858Z,48.10
2019-04-11T19:16:48.024Z,47.90
2019-04-11T19:19:39.575Z,49.20
2019-04-11T19:22:37.406Z,49.20
2019-04-11T19:25:26.074Z,49.70
2019-04-11T19:28:18.760Z,49.40
2019-04-11T19:31:12.307Z,49.40
2019-04-11T19:34:07.369Z,49.90
2019-04-11T19:36:57.757Z,49.80
2019-04-11T19:39:49.075Z,49.70
2019-04-11T19:42:56.050Z,49.00
2019-04-11T19:45:49.857Z,49.00
2019-04-11T19:48:41.320Z,49.10
2019-04-11T19:51:33.073Z,49.80
2019-04-11T19:54:24.821Z,50.00
2019-04-11T19:57:16.932Z,49.90
2019-04-11T20:00:10.381Z,49.80
2019-04-11T20:03:02.337Z,49.70
2019-04-11T20:05:54.113Z,49.20
2019-04-11T20:08:47.804Z,48.10
2019-04-11T20:11:40.418Z,46.90
2019-04-11T20:14:36.230Z,47.60
2019-04-11T20:17:28.570Z,47.80
2019-04-11T20:20:20.699Z,48.50
2019-04-11T20:23:12.465Z,49.60
2019-04-11T20:26:04.404Z,49.40
2019-04-11T20:28:56.820Z,49.50
2019-04-11T20:31:48.558Z,49.10
2019-04-11T20:34:40.515Z,48.90
2019-04-11T20:37:39.084Z,48.70
2019-04-11T20:40:26.075Z,48.30
2019-04-11T20:43:18.647Z,47.90
2019-04-11T20:46:10.729Z,48.90
2019-04-11T20:49:05.835Z,48.00
2019-04-11T20:51:57.892Z,48.40
2019-04-11T20:54:50.294Z,48.30
2019-04-11T20:57:43.307Z,48.60
2019-04-11T21:00:50.697Z,48.90
2019-04-11T21:03:42.791Z,49.30
2019-04-11T21:06:33.691Z,49.40
2019-04-11T21:09:26.736Z,49.50
2019-04-11T21:12:20.326Z,49.40
2019-04-11T21:15:11.943Z,49.70
2019-04-11T21:18:04.145Z,49.90
2019-04-11T21:20:56.257Z,50.50
2019-04-11T21:23:48.095Z,50.40
2019-04-11T21:26:40.112Z,50.20
2019-04-11T21:29:32.044Z,50.30
2019-04-11T21:32:24.971Z,49.80
2019-04-11T21:35:17.061Z,50.20
2019-04-11T21:38:09.330Z,50.90
2019-04-11T21:41:01.527Z,50.70
2019-04-11T21:43:53.915Z,50.70
2019-04-11T21:46:45.431Z,51.10
2019-04-11T21:49:37.752Z,50.90
2019-04-11T21:52:32.271Z,50.50
2019-04-11T21:55:24.778Z,50.60
2019-04-11T21:58:19.399Z,50.70
2019-04-11T22:01:12.076Z,50.60
2019-04-11T22:04:03.954Z,50.40
2019-04-11T22:06:58.714Z,50.20
2019-04-11T22:09:49.360Z,50.20
2019-04-11T22:12:41.094Z,50.20
2019-04-11T22:15:33.244Z,50.00
2019-04-11T22:18:26.243Z,50.20
2019-04-11T22:21:17.759Z,50.20
2019-04-11T22:24:09.534Z,50.40
2019-04-11T22:27:01.416Z,50.70
2019-04-11T22:29:55.325Z,49.80
2019-04-11T22:32:47.974Z,49.00
2019-04-11T22:35:39.823Z,48.60
2019-04-11T22:38:32.313Z,48.10
2019-04-11T22:41:24.449Z,47.70
2019-04-11T22:44:16.314Z,47.30
2019-04-11T22:47:08.665Z,47.40
2019-04-11T22:50:00.546Z,47.50
2019-04-11T22:52:52.647Z,47.70
2019-04-11T22:55:44.781Z,47.50
2019-04-11T22:58:37.868Z,47.30
2019-04-11T23:01:29.517Z,47.20
2019-04-11T23:04:21.404Z,46.80
2019-04-11T23:07:15.025Z,47.10
2019-04-11T23:10:11.146Z,47.30
2019-04-11T23:13:02.965Z,47.20
2019-04-11T23:15:56.599Z,47.30
2019-04-11T23:19:02.262Z,47.20
2019-04-11T23:21:53.977Z,47.40
2019-04-11T23:24:45.586Z,46.90
2019-04-11T23:28:03.373Z,46.90
2019-04-11T23:30:55.081Z,47.00
2019-04-11T23:33:47.060Z,47.00
2019-04-11T23:36:39.117Z,47.30
2019-04-11T23:39:31.384Z,47.30
2019-04-11T23:42:24.282Z,47.50
2019-04-11T23:45:16.056Z,47.90
2019-04-11T23:48:07.588Z,48.00
2019-04-11T23:50:59.771Z,48.10
2019-04-11T23:53:51.802Z,48.00
2019-04-11T23:56:44.894Z,47.90
2019-04-11T23:59:36.336Z,47.80
